DAL161 EHAM-KMSP
Flight info
| Callsign | DAL161 |
|---|---|
| Flight time | N/A |
| Altitude | 38000 |
| Route | BERGI L60 PENIL M144 BAGSO DCT DOGAL/M085F390 DCT 55N020W 56N030W 56N040W 54N050W DCT NEEKO/N0481F400 DCT OBSAT DCT NOWAA DCT VETRO DCT YXZ DCT SAW DCT SHEAY MUSCL4 |
| Aircraft | A359/H-SDE2E3GHIJ3J4J5LM1ORWXY/LB1D1 |
Departure
| Time | 2026-04-28 06:48 |
|---|---|
| Airport | Amsterdam Airport Schiphol (EHAM) |
Arrival
| Time | N/A |
|---|---|
| Airport | Minneapolis–Saint Paul International Airport / Wold–Chamberlain Field (KMSP) |
| Time | Latitude | Longitude | Altitude | Speed | Heading |
|---|---|---|---|---|---|
| 2026-04-28 06:24 | 52.30983 | 4.76921 | 6 ft | 0 kts | 137° |
| 2026-04-28 06:30 | 52.30985 | 4.76917 | 5 ft | 3 kts | 139° |
| 2026-04-28 06:31 | 52.31006 | 4.76900 | 6 ft | 4 kts | 183° |
| 2026-04-28 06:31 | 52.31030 | 4.76902 | 7 ft | 2 kts | 168° |
| 2026-04-28 06:31 | 52.31052 | 4.76897 | 6 ft | 4 kts | 160° |
| 2026-04-28 06:31 | 52.31071 | 4.76881 | 5 ft | 4 kts | 105° |
| 2026-04-28 06:32 | 52.31065 | 4.76852 | 9 ft | 3 kts | 44° |
| 2026-04-28 06:32 | 52.31045 | 4.76828 | 8 ft | 2 kts | 33° |
| 2026-04-28 06:32 | 52.31044 | 4.76827 | 8 ft | 0 kts | 33° |
| 2026-04-28 06:36 | 52.31052 | 4.76836 | 7 ft | 6 kts | 33° |
| 2026-04-28 06:36 | 52.31125 | 4.76914 | 5 ft | 15 kts | 33° |
| 2026-04-28 06:36 | 52.31214 | 4.77011 | 5 ft | 16 kts | 33° |
| 2026-04-28 06:37 | 52.31306 | 4.77110 | 5 ft | 16 kts | 33° |
| 2026-04-28 06:37 | 52.31390 | 4.77187 | 5 ft | 12 kts | 12° |
| 2026-04-28 06:37 | 52.31466 | 4.77169 | 7 ft | 11 kts | 317° |
| 2026-04-28 06:37 | 52.31482 | 4.77032 | 5 ft | 16 kts | 267° |
| 2026-04-28 06:38 | 52.31476 | 4.76819 | 5 ft | 22 kts | 267° |
| 2026-04-28 06:38 | 52.31466 | 4.76553 | 5 ft | 24 kts | 266° |
| 2026-04-28 06:38 | 52.31458 | 4.76279 | 5 ft | 24 kts | 267° |
| 2026-04-28 06:38 | 52.31447 | 4.75998 | 6 ft | 25 kts | 267° |
| 2026-04-28 06:39 | 52.31437 | 4.75727 | 5 ft | 23 kts | 266° |
| 2026-04-28 06:39 | 52.31427 | 4.75456 | 5 ft | 25 kts | 266° |
| 2026-04-28 06:39 | 52.31417 | 4.75179 | 5 ft | 24 kts | 266° |
| 2026-04-28 06:39 | 52.31409 | 4.74913 | 5 ft | 23 kts | 268° |
| 2026-04-28 06:40 | 52.31401 | 4.74641 | 5 ft | 24 kts | 267° |
| 2026-04-28 06:40 | 52.31393 | 4.74397 | 5 ft | 14 kts | 267° |
| 2026-04-28 06:40 | 52.31417 | 4.74296 | 5 ft | 9 kts | 336° |
| 2026-04-28 06:40 | 52.31488 | 4.74292 | 5 ft | 12 kts | 4° |
| 2026-04-28 06:41 | 52.31594 | 4.74303 | 5 ft | 19 kts | 4° |
| 2026-04-28 06:41 | 52.31746 | 4.74318 | 5 ft | 24 kts | 3° |
| 2026-04-28 06:41 | 52.31928 | 4.74335 | 5 ft | 23 kts | 2° |
| 2026-04-28 06:41 | 52.32001 | 4.74330 | 5 ft | 6 kts | 342° |
| 2026-04-28 06:42 | 52.32027 | 4.74280 | 5 ft | 6 kts | 289° |
| 2026-04-28 06:42 | 52.32031 | 4.74193 | 5 ft | 10 kts | 274° |
| 2026-04-28 06:42 | 52.32038 | 4.74030 | 4 ft | 20 kts | 274° |
| 2026-04-28 06:42 | 52.32046 | 4.73791 | 6 ft | 21 kts | 272° |
| 2026-04-28 06:43 | 52.32054 | 4.73554 | 5 ft | 20 kts | 273° |
| 2026-04-28 06:43 | 52.32101 | 4.73343 | 5 ft | 21 kts | 314° |
| 2026-04-28 06:43 | 52.32210 | 4.73185 | 5 ft | 21 kts | 320° |
| 2026-04-28 06:43 | 52.32328 | 4.73019 | 5 ft | 23 kts | 319° |
| 2026-04-28 06:44 | 52.32456 | 4.72840 | 5 ft | 25 kts | 319° |
| 2026-04-28 06:44 | 52.32594 | 4.72647 | 5 ft | 26 kts | 319° |
| 2026-04-28 06:44 | 52.32721 | 4.72443 | 5 ft | 23 kts | 310° |
| 2026-04-28 06:44 | 52.32820 | 4.72260 | 5 ft | 22 kts | 311° |
| 2026-04-28 06:45 | 52.32923 | 4.72069 | 5 ft | 23 kts | 311° |
| 2026-04-28 06:45 | 52.33026 | 4.71874 | 5 ft | 23 kts | 311° |
| 2026-04-28 06:45 | 52.33119 | 4.71703 | 5 ft | 17 kts | 311° |
| 2026-04-28 06:45 | 52.33142 | 4.71539 | 5 ft | 16 kts | 249° |
| 2026-04-28 06:46 | 52.33065 | 4.71402 | 5 ft | 18 kts | 221° |
| 2026-04-28 06:46 | 52.32956 | 4.71246 | 5 ft | 23 kts | 221° |
| 2026-04-28 06:46 | 52.32879 | 4.71126 | 5 ft | 12 kts | 232° |
| 2026-04-28 06:46 | 52.32865 | 4.70992 | 4 ft | 13 kts | 276° |
| 2026-04-28 06:47 | 52.32918 | 4.70900 | 4 ft | 12 kts | 350° |
| 2026-04-28 06:47 | 52.32964 | 4.70903 | 3 ft | 0 kts | 4° |
| 2026-04-28 06:47 | 52.32970 | 4.70903 | 3 ft | 7 kts | 4° |
| 2026-04-28 06:47 | 52.33219 | 4.70925 | 2 ft | 68 kts | 3° |
| 2026-04-28 06:48 | 52.33883 | 4.70987 | 6 ft | 122 kts | 3° |
| 2026-04-28 06:48 | 52.34517 | 4.71054 | 30 ft | 151 kts | 8° |
| 2026-04-28 06:48 | 52.35522 | 4.71136 | 760 ft | 139 kts | 6° |
| 2026-04-28 06:48 | 52.36526 | 4.71181 | 1299 ft | 147 kts | 8° |
| 2026-04-28 06:49 | 52.37622 | 4.71247 | 1555 ft | 168 kts | 9° |
| 2026-04-28 06:49 | 52.38861 | 4.71403 | 1828 ft | 190 kts | 10° |
| 2026-04-28 06:49 | 52.40259 | 4.71588 | 2113 ft | 213 kts | 10° |
| 2026-04-28 06:49 | 52.41807 | 4.71767 | 2544 ft | 230 kts | 9° |
| 2026-04-28 06:50 | 52.43433 | 4.71932 | 3128 ft | 239 kts | 8° |
| 2026-04-28 06:50 | 52.45127 | 4.72098 | 3739 ft | 248 kts | 8° |
| 2026-04-28 06:50 | 52.46865 | 4.72265 | 4461 ft | 252 kts | 8° |
| 2026-04-28 06:50 | 52.48628 | 4.72435 | 5167 ft | 257 kts | 8° |
| 2026-04-28 06:51 | 52.50433 | 4.72612 | 5824 ft | 262 kts | 8° |
| 2026-04-28 06:51 | 52.52266 | 4.72791 | 6533 ft | 266 kts | 8° |
| 2026-04-28 06:51 | 52.54123 | 4.72971 | 7221 ft | 269 kts | 8° |
| 2026-04-28 06:51 | 52.56008 | 4.73153 | 7926 ft | 274 kts | 7° |
| 2026-04-28 06:52 | 52.57938 | 4.72937 | 8637 ft | 284 kts | 349° |
| 2026-04-28 06:52 | 52.59733 | 4.71499 | 9364 ft | 295 kts | 323° |
| 2026-04-28 06:52 | 52.61097 | 4.68946 | 10103 ft | 302 kts | 307° |
| 2026-04-28 06:52 | 52.62300 | 4.66056 | 10643 ft | 312 kts | 306° |
| 2026-04-28 06:53 | 52.63549 | 4.63024 | 10986 ft | 329 kts | 306° |
| 2026-04-28 06:53 | 52.64876 | 4.59831 | 11340 ft | 346 kts | 306° |
| 2026-04-28 06:53 | 52.66271 | 4.56495 | 11698 ft | 361 kts | 307° |
| 2026-04-28 06:53 | 52.67723 | 4.53029 | 12075 ft | 375 kts | 307° |
| 2026-04-28 06:54 | 52.69224 | 4.49447 | 12628 ft | 382 kts | 307° |
| 2026-04-28 06:54 | 52.70740 | 4.45824 | 13261 ft | 388 kts | 307° |
| 2026-04-28 06:54 | 52.72282 | 4.42137 | 13845 ft | 394 kts | 307° |
| 2026-04-28 06:54 | 52.73839 | 4.38383 | 14438 ft | 399 kts | 306° |
| 2026-04-28 06:55 | 52.75179 | 4.34328 | 15037 ft | 405 kts | 296° |
| 2026-04-28 06:55 | 52.76227 | 4.29995 | 15636 ft | 409 kts | 291° |
| 2026-04-28 06:55 | 52.77156 | 4.25531 | 16217 ft | 413 kts | 290° |
| 2026-04-28 06:55 | 52.78022 | 4.21058 | 16836 ft | 416 kts | 289° |
| 2026-04-28 06:56 | 52.78902 | 4.16428 | 17454 ft | 419 kts | 289° |
| 2026-04-28 06:56 | 52.79785 | 4.11822 | 18079 ft | 423 kts | 289° |
| 2026-04-28 06:56 | 52.80689 | 4.07180 | 18701 ft | 426 kts | 289° |
| 2026-04-28 06:56 | 52.81612 | 4.02498 | 19294 ft | 429 kts | 290° |
| 2026-04-28 06:57 | 52.82547 | 3.97795 | 19793 ft | 435 kts | 290° |
| 2026-04-28 06:57 | 52.83498 | 3.93018 | 20335 ft | 438 kts | 290° |
| 2026-04-28 06:57 | 52.84453 | 3.88221 | 20900 ft | 441 kts | 289° |
| 2026-04-28 06:57 | 52.85413 | 3.83387 | 21462 ft | 444 kts | 289° |
| 2026-04-28 06:58 | 52.86378 | 3.78511 | 22003 ft | 447 kts | 289° |
| 2026-04-28 06:58 | 52.87347 | 3.73597 | 22566 ft | 451 kts | 289° |
| 2026-04-28 06:58 | 52.88321 | 3.68643 | 23119 ft | 454 kts | 289° |
| 2026-04-28 06:58 | 52.89298 | 3.63660 | 23651 ft | 457 kts | 288° |
| 2026-04-28 06:59 | 52.90280 | 3.58635 | 24140 ft | 461 kts | 288° |
| 2026-04-28 06:59 | 52.91269 | 3.53563 | 24581 ft | 464 kts | 289° |
| 2026-04-28 06:59 | 52.92262 | 3.48456 | 25093 ft | 465 kts | 289° |
| 2026-04-28 06:59 | 52.93252 | 3.43354 | 25590 ft | 467 kts | 289° |
| 2026-04-28 07:00 | 52.94231 | 3.38293 | 26010 ft | 470 kts | 289° |
| 2026-04-28 07:00 | 52.95247 | 3.33038 | 26454 ft | 473 kts | 289° |
| 2026-04-28 07:00 | 52.96249 | 3.27837 | 26908 ft | 476 kts | 290° |
| 2026-04-28 07:00 | 52.97256 | 3.22577 | 27191 ft | 481 kts | 290° |
| 2026-04-28 07:01 | 52.98275 | 3.17257 | 27521 ft | 486 kts | 291° |
| 2026-04-28 07:01 | 52.99303 | 3.11883 | 27945 ft | 489 kts | 291° |
| 2026-04-28 07:01 | 53.00332 | 3.06484 | 28341 ft | 493 kts | 291° |
| 2026-04-28 07:01 | 53.01367 | 3.01029 | 28659 ft | 498 kts | 292° |
| 2026-04-28 07:02 | 53.02412 | 2.95516 | 28891 ft | 504 kts | 292° |
| 2026-04-28 07:02 | 53.03451 | 2.90011 | 29278 ft | 507 kts | 292° |
| 2026-04-28 07:02 | 53.04504 | 2.84407 | 29671 ft | 509 kts | 292° |
| 2026-04-28 07:02 | 53.05572 | 2.78710 | 30025 ft | 513 kts | 292° |
| 2026-04-28 07:03 | 53.06634 | 2.73022 | 30376 ft | 516 kts | 292° |
| 2026-04-28 07:03 | 53.07696 | 2.67325 | 30664 ft | 518 kts | 292° |
| 2026-04-28 07:03 | 53.08762 | 2.61581 | 30991 ft | 519 kts | 291° |
| 2026-04-28 07:03 | 53.09810 | 2.55912 | 31306 ft | 520 kts | 291° |
| 2026-04-28 07:04 | 53.10762 | 2.50077 | 31554 ft | 527 kts | 286° |
| 2026-04-28 07:04 | 53.11387 | 2.44040 | 31780 ft | 531 kts | 283° |
| 2026-04-28 07:04 | 53.11930 | 2.37963 | 32164 ft | 530 kts | 282° |
| 2026-04-28 07:04 | 53.12432 | 2.31897 | 32642 ft | 527 kts | 281° |
| 2026-04-28 07:05 | 53.12911 | 2.25870 | 33089 ft | 525 kts | 281° |
| 2026-04-28 07:05 | 53.13384 | 2.19853 | 33507 ft | 523 kts | 281° |
| 2026-04-28 07:05 | 53.13855 | 2.13856 | 33919 ft | 521 kts | 281° |
| 2026-04-28 07:05 | 53.14324 | 2.07894 | 34303 ft | 519 kts | 281° |
| 2026-04-28 07:06 | 53.14792 | 2.01953 | 34620 ft | 518 kts | 281° |
| 2026-04-28 07:06 | 53.15262 | 1.95988 | 34800 ft | 519 kts | 281° |
| 2026-04-28 07:06 | 53.15730 | 1.90017 | 35036 ft | 519 kts | 281° |
| 2026-04-28 07:06 | 53.16192 | 1.84085 | 35329 ft | 517 kts | 281° |
| 2026-04-28 07:07 | 53.16651 | 1.78149 | 35595 ft | 516 kts | 281° |
| 2026-04-28 07:07 | 53.17107 | 1.72217 | 35854 ft | 515 kts | 281° |
| 2026-04-28 07:07 | 53.17558 | 1.66299 | 36103 ft | 514 kts | 280° |
| 2026-04-28 07:07 | 53.18005 | 1.60400 | 36353 ft | 513 kts | 280° |
| 2026-04-28 07:08 | 53.18447 | 1.54515 | 36565 ft | 512 kts | 280° |
| 2026-04-28 07:08 | 53.18888 | 1.48616 | 36738 ft | 513 kts | 280° |
| 2026-04-28 07:08 | 53.19326 | 1.42718 | 36903 ft | 513 kts | 280° |
| 2026-04-28 07:08 | 53.19762 | 1.36809 | 37130 ft | 512 kts | 280° |
| 2026-04-28 07:09 | 53.20192 | 1.30925 | 37345 ft | 511 kts | 280° |
| 2026-04-28 07:09 | 53.20620 | 1.25038 | 37556 ft | 510 kts | 280° |
| 2026-04-28 07:09 | 53.21042 | 1.19184 | 37755 ft | 509 kts | 279° |
| 2026-04-28 07:09 | 53.21463 | 1.13309 | 37952 ft | 509 kts | 279° |
| 2026-04-28 07:10 | 53.21879 | 1.07460 | 38120 ft | 508 kts | 279° |
| 2026-04-28 07:10 | 53.22292 | 1.01618 | 38275 ft | 507 kts | 279° |
| 2026-04-28 07:10 | 53.22703 | 0.95761 | 38379 ft | 509 kts | 279° |
| 2026-04-28 07:11 | 53.23522 | 0.83977 | 38381 ft | 513 kts | 279° |
| 2026-04-28 07:11 | 53.24332 | 0.72132 | 38379 ft | 513 kts | 279° |
| 2026-04-28 07:12 | 53.25129 | 0.60289 | 38372 ft | 513 kts | 279° |
| 2026-04-28 07:12 | 53.25913 | 0.48454 | 38380 ft | 513 kts | 280° |
| 2026-04-28 07:13 | 53.26689 | 0.36590 | 38379 ft | 514 kts | 280° |
| 2026-04-28 07:13 | 53.27454 | 0.24699 | 38381 ft | 514 kts | 279° |
| 2026-04-28 07:14 | 53.28206 | 0.12824 | 38381 ft | 514 kts | 279° |
| 2026-04-28 07:14 | 53.28950 | 0.00936 | 38378 ft | 514 kts | 280° |
| 2026-04-28 07:15 | 53.30067 | -0.10835 | 38377 ft | 512 kts | 285° |
| 2026-04-28 07:15 | 53.31397 | -0.22507 | 38374 ft | 512 kts | 285° |
| 2026-04-28 07:16 | 53.32667 | -0.34230 | 38376 ft | 512 kts | 284° |
| 2026-04-28 07:16 | 53.33871 | -0.45965 | 38381 ft | 512 kts | 283° |
| 2026-04-28 07:17 | 53.35045 | -0.57722 | 38383 ft | 512 kts | 283° |
| 2026-04-28 07:17 | 53.36201 | -0.69489 | 38385 ft | 512 kts | 283° |
| 2026-04-28 07:18 | 53.37351 | -0.81257 | 38389 ft | 512 kts | 283° |
| 2026-04-28 07:18 | 53.38499 | -0.93050 | 38393 ft | 512 kts | 283° |
| 2026-04-28 07:19 | 53.39625 | -1.04824 | 38379 ft | 512 kts | 283° |
| 2026-04-28 07:19 | 53.40744 | -1.16616 | 38396 ft | 513 kts | 283° |
| 2026-04-28 07:20 | 53.41855 | -1.28340 | 38399 ft | 512 kts | 283° |
| 2026-04-28 07:20 | 53.42953 | -1.40218 | 38400 ft | 513 kts | 283° |
| 2026-04-28 07:21 | 53.44032 | -1.51970 | 38409 ft | 513 kts | 283° |
| 2026-04-28 07:21 | 53.45115 | -1.63884 | 38411 ft | 515 kts | 283° |
| 2026-04-28 07:22 | 53.46704 | -1.81645 | 38406 ft | 516 kts | 283° |
| 2026-04-28 07:22 | 53.47761 | -1.93650 | 38410 ft | 516 kts | 283° |
| 2026-04-28 07:23 | 53.48793 | -2.05493 | 38408 ft | 516 kts | 283° |
| 2026-04-28 07:23 | 53.49826 | -2.17494 | 38406 ft | 515 kts | 282° |
| 2026-04-28 07:24 | 53.50837 | -2.29306 | 38407 ft | 515 kts | 282° |
| 2026-04-28 07:24 | 53.51835 | -2.41213 | 38395 ft | 515 kts | 282° |
| 2026-04-28 07:25 | 53.52822 | -2.53135 | 38412 ft | 515 kts | 282° |
| 2026-04-28 07:25 | 53.53797 | -2.65044 | 38405 ft | 514 kts | 282° |
| 2026-04-28 07:26 | 53.54759 | -2.76941 | 38414 ft | 512 kts | 282° |
| 2026-04-28 07:26 | 53.55708 | -2.88805 | 38427 ft | 512 kts | 282° |
| 2026-04-28 07:27 | 53.56646 | -3.00690 | 38428 ft | 512 kts | 282° |
| 2026-04-28 07:27 | 53.57572 | -3.12583 | 38399 ft | 512 kts | 283° |
| 2026-04-28 07:28 | 53.58483 | -3.24453 | 38427 ft | 511 kts | 283° |
| 2026-04-28 07:28 | 53.59382 | -3.36311 | 38425 ft | 511 kts | 283° |
| 2026-04-28 07:29 | 53.60270 | -3.48173 | 38426 ft | 511 kts | 282° |
| 2026-04-28 07:29 | 53.61145 | -3.60046 | 38422 ft | 511 kts | 282° |
| 2026-04-28 07:30 | 53.61974 | -3.71927 | 38424 ft | 511 kts | 281° |
| 2026-04-28 07:30 | 53.62462 | -3.83887 | 38424 ft | 513 kts | 279° |
| 2026-04-28 07:31 | 53.62860 | -3.95867 | 38424 ft | 512 kts | 279° |
| 2026-04-28 07:31 | 53.63219 | -4.05840 | 38427 ft | 512 kts | 279° |
| 2026-04-28 07:32 | 53.63750 | -4.19830 | 38412 ft | 512 kts | 279° |
| 2026-04-28 07:32 | 53.64127 | -4.29760 | 38425 ft | 510 kts | 279° |
| 2026-04-28 07:33 | 53.64574 | -4.41682 | 38420 ft | 509 kts | 279° |
| 2026-04-28 07:33 | 53.65006 | -4.53590 | 38421 ft | 510 kts | 279° |
| 2026-04-28 07:34 | 53.65417 | -4.65517 | 38418 ft | 509 kts | 279° |
| 2026-04-28 07:34 | 53.65814 | -4.77411 | 38426 ft | 508 kts | 278° |
| 2026-04-28 07:35 | 53.66204 | -4.89282 | 38436 ft | 507 kts | 279° |
| 2026-04-28 07:35 | 53.66588 | -5.01161 | 38440 ft | 507 kts | 278° |
| 2026-04-28 07:36 | 53.66958 | -5.13023 | 38439 ft | 507 kts | 278° |
| 2026-04-28 07:36 | 53.67311 | -5.24896 | 38423 ft | 507 kts | 278° |
| 2026-04-28 07:37 | 53.67646 | -5.36756 | 38437 ft | 505 kts | 278° |
| 2026-04-28 07:37 | 53.67969 | -5.48573 | 38444 ft | 505 kts | 278° |
| 2026-04-28 07:38 | 53.68528 | -5.60333 | 38441 ft | 501 kts | 283° |
| 2026-04-28 07:38 | 53.69483 | -5.71954 | 38441 ft | 500 kts | 284° |
| 2026-04-28 07:39 | 53.70416 | -5.83584 | 38438 ft | 501 kts | 283° |
| 2026-04-28 07:39 | 53.71267 | -5.95249 | 38445 ft | 501 kts | 282° |
| 2026-04-28 07:40 | 53.72078 | -6.06958 | 38445 ft | 501 kts | 282° |
| 2026-04-28 07:40 | 53.72872 | -6.18653 | 38444 ft | 502 kts | 282° |
| 2026-04-28 07:41 | 53.73658 | -6.30352 | 38440 ft | 502 kts | 282° |
| 2026-04-28 07:41 | 53.74433 | -6.42040 | 38438 ft | 500 kts | 282° |
| 2026-04-28 07:42 | 53.75196 | -6.53703 | 38436 ft | 500 kts | 281° |
| 2026-04-28 07:42 | 53.75949 | -6.65394 | 38433 ft | 500 kts | 281° |
| 2026-04-28 07:43 | 53.76691 | -6.77090 | 38439 ft | 500 kts | 281° |
| 2026-04-28 07:43 | 53.77420 | -6.88774 | 38439 ft | 500 kts | 281° |
| 2026-04-28 07:44 | 53.78137 | -7.00457 | 38430 ft | 499 kts | 281° |
| 2026-04-28 07:44 | 53.78842 | -7.12135 | 38421 ft | 499 kts | 280° |
| 2026-04-28 07:45 | 53.79538 | -7.23824 | 38430 ft | 500 kts | 280° |
| 2026-04-28 07:45 | 53.80222 | -7.35531 | 38413 ft | 500 kts | 280° |
| 2026-04-28 07:46 | 53.80894 | -7.47228 | 38423 ft | 499 kts | 280° |
| 2026-04-28 07:46 | 53.81553 | -7.58929 | 38425 ft | 499 kts | 279° |
| 2026-04-28 07:47 | 53.82202 | -7.70638 | 38425 ft | 499 kts | 279° |
| 2026-04-28 07:47 | 53.82839 | -7.82334 | 38416 ft | 499 kts | 279° |
| 2026-04-28 07:48 | 53.83465 | -7.94041 | 38412 ft | 499 kts | 279° |
| 2026-04-28 07:48 | 53.84078 | -8.05726 | 38418 ft | 498 kts | 279° |
| 2026-04-28 07:49 | 53.84677 | -8.17347 | 38420 ft | 498 kts | 279° |
| 2026-04-28 07:49 | 53.85268 | -8.29048 | 38417 ft | 499 kts | 279° |
| 2026-04-28 07:50 | 53.85852 | -8.40831 | 38386 ft | 499 kts | 278° |
| 2026-04-28 07:50 | 53.86415 | -8.52442 | 38416 ft | 498 kts | 278° |
| 2026-04-28 07:51 | 53.86971 | -8.64141 | 38425 ft | 498 kts | 278° |
| 2026-04-28 07:51 | 53.87517 | -8.75847 | 38431 ft | 498 kts | 278° |
| 2026-04-28 07:52 | 53.88050 | -8.87550 | 38425 ft | 498 kts | 278° |
| 2026-04-28 07:52 | 53.88572 | -8.99236 | 38419 ft | 498 kts | 277° |
| 2026-04-28 07:53 | 53.89083 | -9.10965 | 38423 ft | 497 kts | 277° |
| 2026-04-28 07:53 | 53.89581 | -9.22649 | 38417 ft | 497 kts | 277° |
| 2026-04-28 07:54 | 53.90067 | -9.34319 | 38424 ft | 496 kts | 277° |
| 2026-04-28 07:54 | 53.90541 | -9.45978 | 38426 ft | 496 kts | 276° |
| 2026-04-28 07:55 | 53.91004 | -9.57656 | 38428 ft | 494 kts | 276° |
| 2026-04-28 07:55 | 53.91454 | -9.69271 | 38433 ft | 493 kts | 276° |
| 2026-04-28 07:56 | 53.91892 | -9.80877 | 38433 ft | 493 kts | 276° |
| 2026-04-28 07:56 | 53.92320 | -9.92504 | 38435 ft | 493 kts | 276° |
| 2026-04-28 07:57 | 53.92736 | -10.04123 | 38434 ft | 493 kts | 275° |
| 2026-04-28 07:57 | 53.93140 | -10.15715 | 38435 ft | 492 kts | 275° |
| 2026-04-28 07:58 | 53.93531 | -10.27283 | 38436 ft | 491 kts | 275° |
| 2026-04-28 07:58 | 53.93912 | -10.38867 | 38430 ft | 492 kts | 275° |
| 2026-04-28 07:59 | 53.94283 | -10.50460 | 38430 ft | 492 kts | 275° |
| 2026-04-28 07:59 | 53.94642 | -10.62049 | 38428 ft | 491 kts | 274° |
| 2026-04-28 08:00 | 53.94986 | -10.73530 | 38433 ft | 490 kts | 274° |
| 2026-04-28 08:00 | 53.95321 | -10.85074 | 38433 ft | 490 kts | 274° |
| 2026-04-28 08:01 | 53.95645 | -10.96613 | 38433 ft | 490 kts | 274° |
| 2026-04-28 08:01 | 53.95958 | -11.08167 | 38433 ft | 490 kts | 274° |
| 2026-04-28 08:02 | 53.96260 | -11.19735 | 38433 ft | 490 kts | 274° |
| 2026-04-28 08:02 | 53.96551 | -11.31281 | 38429 ft | 490 kts | 274° |
| 2026-04-28 08:03 | 53.96831 | -11.42828 | 38430 ft | 489 kts | 273° |
| 2026-04-28 08:03 | 53.97099 | -11.54356 | 38430 ft | 489 kts | 273° |
| 2026-04-28 08:04 | 53.97356 | -11.65895 | 38430 ft | 488 kts | 272° |
| 2026-04-28 08:04 | 53.97602 | -11.77414 | 38434 ft | 488 kts | 272° |
| 2026-04-28 08:05 | 53.97836 | -11.88917 | 38433 ft | 487 kts | 272° |
| 2026-04-28 08:05 | 53.98059 | -12.00426 | 38432 ft | 488 kts | 272° |
| 2026-04-28 08:06 | 53.98272 | -12.11925 | 38433 ft | 487 kts | 272° |
| 2026-04-28 08:06 | 53.98474 | -12.23441 | 38434 ft | 488 kts | 271° |
| 2026-04-28 08:07 | 53.98664 | -12.34933 | 38438 ft | 486 kts | 271° |
| 2026-04-28 08:07 | 53.98843 | -12.46406 | 38439 ft | 487 kts | 271° |
| 2026-04-28 08:08 | 53.99011 | -12.57900 | 38435 ft | 485 kts | 271° |
| 2026-04-28 08:08 | 53.99168 | -12.69366 | 38439 ft | 486 kts | 271° |
| 2026-04-28 08:09 | 53.99314 | -12.80828 | 38437 ft | 484 kts | 271° |
| 2026-04-28 08:09 | 53.99450 | -12.92287 | 38439 ft | 485 kts | 270° |
| 2026-04-28 08:10 | 53.99573 | -13.03725 | 38438 ft | 484 kts | 270° |
| 2026-04-28 08:10 | 53.99686 | -13.15176 | 38439 ft | 485 kts | 270° |
| 2026-04-28 08:11 | 53.99789 | -13.26627 | 38439 ft | 484 kts | 270° |
| 2026-04-28 08:11 | 53.99880 | -13.38044 | 38435 ft | 483 kts | 270° |
| 2026-04-28 08:12 | 53.99961 | -13.49454 | 38438 ft | 482 kts | 270° |
| 2026-04-28 08:12 | 54.00029 | -13.60750 | 38438 ft | 481 kts | 269° |
| 2026-04-28 08:13 | 54.00088 | -13.72174 | 38436 ft | 481 kts | 269° |
| 2026-04-28 08:13 | 54.00135 | -13.83439 | 38437 ft | 481 kts | 269° |
| 2026-04-28 08:14 | 54.00173 | -13.94888 | 38435 ft | 480 kts | 269° |
| 2026-04-28 08:14 | 54.00199 | -14.06230 | 38430 ft | 480 kts | 269° |
| 2026-04-28 08:15 | 54.00214 | -14.17585 | 38433 ft | 480 kts | 269° |
| 2026-04-28 08:15 | 54.00219 | -14.28839 | 38430 ft | 480 kts | 269° |
| 2026-04-28 08:16 | 54.00214 | -14.40190 | 38431 ft | 479 kts | 269° |
| 2026-04-28 08:16 | 54.00201 | -14.49687 | 38427 ft | 479 kts | 269° |
| 2026-04-28 08:17 | 54.00176 | -14.60998 | 38430 ft | 479 kts | 268° |
| 2026-04-28 08:17 | 54.00133 | -14.74149 | 38425 ft | 479 kts | 268° |
| 2026-04-28 08:18 | 54.00093 | -14.83639 | 38428 ft | 479 kts | 268° |
| 2026-04-28 08:18 | 54.00083 | -14.94954 | 38508 ft | 478 kts | 272° |
| 2026-04-28 08:19 | 54.00483 | -15.00557 | 38717 ft | 478 kts | 281° |
| 2026-04-28 08:19 | 54.01373 | -15.05999 | 38895 ft | 478 kts | 288° |
| 2026-04-28 08:19 | 54.02488 | -15.11329 | 39045 ft | 478 kts | 289° |
| 2026-04-28 08:19 | 54.03665 | -15.16620 | 39168 ft | 478 kts | 290° |
| 2026-04-28 08:20 | 54.04866 | -15.21887 | 39297 ft | 478 kts | 290° |
| 2026-04-28 08:20 | 54.06070 | -15.27159 | 39404 ft | 478 kts | 290° |
| 2026-04-28 08:20 | 54.08460 | -15.37744 | 39417 ft | 480 kts | 289° |
| 2026-04-28 08:21 | 54.10825 | -15.48387 | 39416 ft | 479 kts | 289° |
| 2026-04-28 08:21 | 54.13161 | -15.58998 | 39416 ft | 478 kts | 289° |
| 2026-04-28 08:22 | 54.15487 | -15.69621 | 39411 ft | 478 kts | 289° |
| 2026-04-28 08:22 | 54.17412 | -15.78453 | 39411 ft | 477 kts | 289° |
| 2026-04-28 08:23 | 54.20107 | -15.90878 | 39406 ft | 477 kts | 289° |
| 2026-04-28 08:23 | 54.22402 | -16.01517 | 39405 ft | 477 kts | 289° |
| 2026-04-28 08:24 | 54.24671 | -16.12089 | 39406 ft | 476 kts | 289° |
| 2026-04-28 08:24 | 54.26944 | -16.22732 | 39403 ft | 476 kts | 288° |
| 2026-04-28 08:25 | 54.29217 | -16.33437 | 39400 ft | 476 kts | 288° |
| 2026-04-28 08:26 | 54.32574 | -16.49346 | 39400 ft | 476 kts | 288° |
| 2026-04-28 08:26 | 54.34809 | -16.60013 | 39400 ft | 475 kts | 288° |
| 2026-04-28 08:27 | 54.37036 | -16.70690 | 39402 ft | 475 kts | 288° |
| 2026-04-28 08:27 | 54.39248 | -16.81357 | 39397 ft | 474 kts | 287° |
| 2026-04-28 08:28 | 54.41446 | -16.92013 | 39389 ft | 474 kts | 287° |
| 2026-04-28 08:28 | 54.43635 | -17.02680 | 39390 ft | 474 kts | 287° |
| 2026-04-28 08:29 | 54.45815 | -17.13364 | 39389 ft | 473 kts | 287° |
| 2026-04-28 08:29 | 54.47982 | -17.24042 | 39379 ft | 473 kts | 287° |
| 2026-04-28 08:30 | 54.50142 | -17.34743 | 39379 ft | 474 kts | 287° |
| 2026-04-28 08:30 | 54.52297 | -17.45468 | 39383 ft | 473 kts | 286° |
| 2026-04-28 08:31 | 54.54430 | -17.56149 | 39370 ft | 472 kts | 287° |
| 2026-04-28 08:31 | 54.56553 | -17.66837 | 39368 ft | 471 kts | 286° |
| 2026-04-28 08:32 | 54.58666 | -17.77542 | 39355 ft | 471 kts | 286° |
| 2026-04-28 08:32 | 54.60768 | -17.88243 | 39358 ft | 472 kts | 286° |
| 2026-04-28 08:33 | 54.62862 | -17.98960 | 39354 ft | 472 kts | 286° |
| 2026-04-28 08:33 | 54.64949 | -18.09701 | 39354 ft | 472 kts | 285° |
| 2026-04-28 08:34 | 54.67016 | -18.20400 | 39348 ft | 473 kts | 285° |
| 2026-04-28 08:34 | 54.69098 | -18.31242 | 39333 ft | 473 kts | 285° |
| 2026-04-28 08:35 | 54.71161 | -18.42040 | 39341 ft | 473 kts | 285° |
| 2026-04-28 08:35 | 54.73201 | -18.52778 | 39321 ft | 473 kts | 285° |
| 2026-04-28 08:36 | 54.75256 | -18.63659 | 39331 ft | 473 kts | 285° |
| 2026-04-28 08:36 | 54.77278 | -18.74427 | 39319 ft | 473 kts | 284° |
| 2026-04-28 08:37 | 54.79307 | -18.85299 | 39322 ft | 476 kts | 284° |
| 2026-04-28 08:37 | 54.81334 | -18.96221 | 39336 ft | 476 kts | 284° |
| 2026-04-28 08:38 | 54.83357 | -19.07176 | 39310 ft | 477 kts | 284° |
| 2026-04-28 08:38 | 54.85369 | -19.18144 | 39312 ft | 477 kts | 284° |
| 2026-04-28 08:39 | 54.87370 | -19.29115 | 39303 ft | 477 kts | 284° |
| 2026-04-28 08:39 | 54.89366 | -19.40124 | 39317 ft | 477 kts | 283° |
| 2026-04-28 08:40 | 54.91347 | -19.51115 | 39302 ft | 477 kts | 283° |
| 2026-04-28 08:40 | 54.93324 | -19.62152 | 39290 ft | 478 kts | 283° |
| 2026-04-28 08:41 | 54.95287 | -19.73183 | 39293 ft | 477 kts | 283° |
| 2026-04-28 08:41 | 54.97242 | -19.84221 | 39284 ft | 477 kts | 282° |
| 2026-04-28 08:42 | 54.99182 | -19.95248 | 39276 ft | 477 kts | 282° |
| 2026-04-28 08:42 | 55.01058 | -20.06307 | 39293 ft | 475 kts | 279° |
| 2026-04-28 08:43 | 55.02626 | -20.17476 | 39273 ft | 473 kts | 278° |
| 2026-04-28 08:43 | 55.04135 | -20.28656 | 39268 ft | 473 kts | 278° |
| 2026-04-28 08:44 | 55.05677 | -20.39816 | 39260 ft | 474 kts | 278° |
| 2026-04-28 08:44 | 55.07233 | -20.50947 | 39260 ft | 473 kts | 278° |
| 2026-04-28 08:45 | 55.08793 | -20.62144 | 39263 ft | 473 kts | 278° |
| 2026-04-28 08:45 | 55.10336 | -20.73308 | 39264 ft | 473 kts | 278° |
| 2026-04-28 08:46 | 55.11866 | -20.84477 | 39242 ft | 472 kts | 278° |
| 2026-04-28 08:46 | 55.13383 | -20.95643 | 39235 ft | 472 kts | 278° |
| 2026-04-28 08:47 | 55.14891 | -21.06819 | 39237 ft | 472 kts | 278° |
| 2026-04-28 08:47 | 55.16385 | -21.17982 | 39231 ft | 472 kts | 278° |
| 2026-04-28 08:48 | 55.17873 | -21.29174 | 39234 ft | 472 kts | 277° |
| 2026-04-28 08:48 | 55.19349 | -21.40364 | 39223 ft | 472 kts | 277° |
| 2026-04-28 08:49 | 55.20800 | -21.51440 | 39231 ft | 469 kts | 277° |
| 2026-04-28 08:49 | 55.22243 | -21.62545 | 39218 ft | 466 kts | 277° |
| 2026-04-28 08:50 | 55.23667 | -21.73606 | 39205 ft | 465 kts | 276° |
| 2026-04-28 08:50 | 55.25080 | -21.84667 | 39205 ft | 465 kts | 276° |
| 2026-04-28 08:51 | 55.26485 | -21.95748 | 39199 ft | 465 kts | 276° |
| 2026-04-28 08:51 | 55.27881 | -22.06830 | 39204 ft | 465 kts | 276° |
| 2026-04-28 08:52 | 55.29261 | -22.17873 | 39184 ft | 462 kts | 276° |
| 2026-04-28 08:52 | 55.30627 | -22.28898 | 39180 ft | 462 kts | 276° |
| 2026-04-28 08:53 | 55.31981 | -22.39921 | 39196 ft | 462 kts | 275° |
| 2026-04-28 08:53 | 55.33319 | -22.50893 | 39169 ft | 460 kts | 275° |
| 2026-04-28 08:54 | 55.34649 | -22.61891 | 39170 ft | 460 kts | 275° |
| 2026-04-28 08:54 | 55.35968 | -22.72881 | 39167 ft | 460 kts | 275° |
| 2026-04-28 08:55 | 55.37278 | -22.83903 | 39155 ft | 461 kts | 275° |
| 2026-04-28 08:55 | 55.38582 | -22.94955 | 39156 ft | 462 kts | 275° |
| 2026-04-28 08:56 | 55.39878 | -23.06021 | 39160 ft | 462 kts | 274° |
| 2026-04-28 08:56 | 55.41164 | -23.17096 | 39151 ft | 462 kts | 274° |
| 2026-04-28 08:57 | 55.42437 | -23.28154 | 39159 ft | 462 kts | 274° |
| 2026-04-28 08:57 | 55.43703 | -23.39267 | 39143 ft | 463 kts | 274° |
| 2026-04-28 08:58 | 55.44958 | -23.50364 | 39139 ft | 463 kts | 274° |
| 2026-04-28 08:58 | 55.46206 | -23.61491 | 39133 ft | 463 kts | 274° |
| 2026-04-28 08:59 | 55.47444 | -23.72618 | 39133 ft | 463 kts | 274° |
| 2026-04-28 08:59 | 55.48670 | -23.83749 | 39120 ft | 462 kts | 274° |
| 2026-04-28 09:00 | 55.49886 | -23.94881 | 39123 ft | 462 kts | 273° |
| 2026-04-28 09:00 | 55.51091 | -24.06015 | 39146 ft | 462 kts | 273° |
| 2026-04-28 09:01 | 55.52087 | -24.15290 | 39146 ft | 463 kts | 273° |
| 2026-04-28 09:01 | 55.53279 | -24.26494 | 39109 ft | 465 kts | 273° |
| 2026-04-28 09:02 | 55.54462 | -24.37708 | 39106 ft | 465 kts | 273° |
| 2026-04-28 09:02 | 55.55636 | -24.48930 | 39110 ft | 465 kts | 272° |
| 2026-04-28 09:03 | 55.56800 | -24.60169 | 39087 ft | 465 kts | 272° |
| 2026-04-28 09:03 | 55.57952 | -24.71404 | 39088 ft | 465 kts | 272° |
| 2026-04-28 09:04 | 55.59094 | -24.82653 | 39097 ft | 466 kts | 272° |
| 2026-04-28 09:04 | 55.60229 | -24.93941 | 39081 ft | 466 kts | 272° |
| 2026-04-28 09:05 | 55.61355 | -25.05239 | 39120 ft | 466 kts | 272° |
| 2026-04-28 09:05 | 55.62471 | -25.16543 | 39074 ft | 466 kts | 272° |
| 2026-04-28 09:06 | 55.63575 | -25.27839 | 39069 ft | 466 kts | 272° |
| 2026-04-28 09:06 | 55.64668 | -25.39149 | 39067 ft | 466 kts | 272° |
| 2026-04-28 09:07 | 55.65746 | -25.50413 | 39067 ft | 468 kts | 272° |
| 2026-04-28 09:07 | 55.66823 | -25.61787 | 39059 ft | 469 kts | 272° |
| 2026-04-28 09:08 | 55.67892 | -25.73184 | 39054 ft | 469 kts | 272° |
| 2026-04-28 09:08 | 55.68949 | -25.84561 | 39055 ft | 468 kts | 272° |
| 2026-04-28 09:09 | 55.69997 | -25.95973 | 39083 ft | 468 kts | 272° |
| 2026-04-28 09:09 | 55.71034 | -26.07385 | 39040 ft | 469 kts | 271° |
| 2026-04-28 09:10 | 55.72061 | -26.18818 | 39049 ft | 470 kts | 271° |
| 2026-04-28 09:10 | 55.73078 | -26.30265 | 39044 ft | 470 kts | 271° |
| 2026-04-28 09:11 | 55.74088 | -26.41746 | 39041 ft | 470 kts | 271° |
| 2026-04-28 09:11 | 55.75085 | -26.53210 | 39038 ft | 470 kts | 271° |
| 2026-04-28 09:12 | 55.76073 | -26.64700 | 39036 ft | 470 kts | 271° |
| 2026-04-28 09:12 | 55.77048 | -26.76171 | 39038 ft | 470 kts | 271° |
| 2026-04-28 09:13 | 55.78015 | -26.87683 | 39034 ft | 472 kts | 271° |
| 2026-04-28 09:13 | 55.78971 | -26.99214 | 39037 ft | 473 kts | 271° |
| 2026-04-28 09:14 | 55.79922 | -27.10788 | 39043 ft | 473 kts | 271° |
| 2026-04-28 09:14 | 55.80862 | -27.22361 | 39046 ft | 473 kts | 271° |
| 2026-04-28 09:15 | 55.81788 | -27.33919 | 39041 ft | 473 kts | 270° |
| 2026-04-28 09:15 | 55.82704 | -27.45502 | 39044 ft | 473 kts | 270° |
| 2026-04-28 09:16 | 55.83602 | -27.57000 | 39043 ft | 474 kts | 271° |
| 2026-04-28 09:16 | 55.84507 | -27.68740 | 39040 ft | 476 kts | 271° |
| 2026-04-28 09:17 | 55.85396 | -27.80394 | 39053 ft | 476 kts | 271° |
| 2026-04-28 09:17 | 55.86274 | -27.92051 | 39039 ft | 475 kts | 271° |
| 2026-04-28 09:18 | 55.87141 | -28.03708 | 39046 ft | 474 kts | 271° |
| 2026-04-28 09:18 | 55.87988 | -28.15278 | 39040 ft | 475 kts | 271° |
| 2026-04-28 09:19 | 55.88830 | -28.26936 | 39044 ft | 475 kts | 271° |
| 2026-04-28 09:19 | 55.89662 | -28.38602 | 39042 ft | 475 kts | 271° |
| 2026-04-28 09:20 | 55.90483 | -28.50274 | 39040 ft | 475 kts | 271° |
| 2026-04-28 09:20 | 55.91290 | -28.61918 | 39045 ft | 475 kts | 271° |
| 2026-04-28 09:21 | 55.92092 | -28.73633 | 39068 ft | 475 kts | 271° |
| 2026-04-28 09:21 | 55.92880 | -28.85326 | 39038 ft | 474 kts | 271° |
| 2026-04-28 09:22 | 55.93527 | -28.95040 | 39053 ft | 474 kts | 271° |
| 2026-04-28 09:22 | 55.94422 | -29.08695 | 39048 ft | 475 kts | 271° |
| 2026-04-28 09:23 | 55.95178 | -29.20410 | 39051 ft | 475 kts | 271° |
| 2026-04-28 09:23 | 55.95921 | -29.32113 | 39047 ft | 475 kts | 271° |
| 2026-04-28 09:24 | 55.96654 | -29.43815 | 39060 ft | 475 kts | 271° |
| 2026-04-28 09:24 | 55.97375 | -29.55535 | 39051 ft | 475 kts | 271° |
| 2026-04-28 09:25 | 55.98085 | -29.67259 | 39079 ft | 474 kts | 271° |
| 2026-04-28 09:25 | 55.98783 | -29.78938 | 39056 ft | 473 kts | 271° |
| 2026-04-28 09:26 | 55.99467 | -29.90603 | 39047 ft | 472 kts | 271° |
| 2026-04-28 09:26 | 56.00140 | -30.02287 | 39051 ft | 472 kts | 271° |
| 2026-04-28 09:27 | 56.00849 | -30.19724 | 39056 ft | 471 kts | 269° |
| 2026-04-28 09:27 | 56.01256 | -30.31409 | 39053 ft | 471 kts | 269° |
| 2026-04-28 09:28 | 56.01679 | -30.43077 | 39051 ft | 471 kts | 269° |
| 2026-04-28 09:28 | 56.02106 | -30.54772 | 39050 ft | 471 kts | 269° |
| 2026-04-28 09:29 | 56.02523 | -30.66448 | 39049 ft | 471 kts | 269° |
| 2026-04-28 09:29 | 56.02929 | -30.78118 | 39053 ft | 471 kts | 269° |
| 2026-04-28 09:30 | 56.03323 | -30.89813 | 39051 ft | 471 kts | 269° |
| 2026-04-28 09:30 | 56.03706 | -31.01499 | 39062 ft | 470 kts | 269° |
| 2026-04-28 09:31 | 56.04077 | -31.13153 | 39055 ft | 470 kts | 269° |
| 2026-04-28 09:31 | 56.04437 | -31.24823 | 39055 ft | 470 kts | 269° |
| 2026-04-28 09:32 | 56.04785 | -31.36490 | 39055 ft | 470 kts | 268° |
| 2026-04-28 09:32 | 56.05123 | -31.48167 | 39055 ft | 470 kts | 268° |
| 2026-04-28 09:33 | 56.05450 | -31.59830 | 39078 ft | 470 kts | 268° |
| 2026-04-28 09:33 | 56.05766 | -31.71498 | 39054 ft | 469 kts | 268° |
| 2026-04-28 09:34 | 56.06070 | -31.83141 | 39056 ft | 468 kts | 268° |
| 2026-04-28 09:34 | 56.06363 | -31.94772 | 39056 ft | 468 kts | 268° |
| 2026-04-28 09:35 | 56.06645 | -32.06420 | 39053 ft | 468 kts | 268° |
| 2026-04-28 09:35 | 56.06916 | -32.18054 | 39056 ft | 468 kts | 268° |
| 2026-04-28 09:36 | 56.07176 | -32.29693 | 39056 ft | 468 kts | 268° |
| 2026-04-28 09:36 | 56.07424 | -32.41335 | 39058 ft | 468 kts | 268° |
| 2026-04-28 09:37 | 56.07663 | -32.52992 | 39059 ft | 468 kts | 268° |
| 2026-04-28 09:37 | 56.07890 | -32.64637 | 39065 ft | 468 kts | 268° |
| 2026-04-28 09:38 | 56.08105 | -32.76224 | 39061 ft | 468 kts | 268° |
| 2026-04-28 09:38 | 56.08311 | -32.87937 | 39055 ft | 468 kts | 267° |
| 2026-04-28 09:39 | 56.08505 | -32.99524 | 39060 ft | 468 kts | 267° |
| 2026-04-28 09:39 | 56.08689 | -33.11244 | 39059 ft | 468 kts | 267° |
| 2026-04-28 09:40 | 56.08861 | -33.22918 | 39061 ft | 469 kts | 267° |
| 2026-04-28 09:40 | 56.09022 | -33.34492 | 39061 ft | 468 kts | 267° |
| 2026-04-28 09:41 | 56.09172 | -33.46154 | 39061 ft | 468 kts | 267° |
| 2026-04-28 09:41 | 56.09312 | -33.57814 | 39090 ft | 468 kts | 267° |
| 2026-04-28 09:42 | 56.09440 | -33.69497 | 39054 ft | 470 kts | 267° |
| 2026-04-28 09:42 | 56.09557 | -33.81198 | 39064 ft | 471 kts | 267° |
| 2026-04-28 09:43 | 56.09664 | -33.92979 | 39064 ft | 473 kts | 267° |
| 2026-04-28 09:43 | 56.09761 | -34.04756 | 39067 ft | 473 kts | 267° |
| 2026-04-28 09:44 | 56.09847 | -34.16534 | 39064 ft | 473 kts | 267° |
| 2026-04-28 09:44 | 56.09921 | -34.28285 | 39064 ft | 473 kts | 266° |
| 2026-04-28 09:45 | 56.09984 | -34.40097 | 39064 ft | 473 kts | 266° |
| 2026-04-28 09:45 | 56.10035 | -34.51893 | 39064 ft | 473 kts | 267° |
| 2026-04-28 09:46 | 56.10075 | -34.63667 | 39075 ft | 472 kts | 267° |
| 2026-04-28 09:46 | 56.10104 | -34.75381 | 39069 ft | 470 kts | 267° |
| 2026-04-28 09:47 | 56.10122 | -34.87066 | 39069 ft | 469 kts | 267° |
| 2026-04-28 09:47 | 56.10128 | -34.98753 | 39070 ft | 469 kts | 267° |
| 2026-04-28 09:48 | 56.10123 | -35.10442 | 39069 ft | 469 kts | 267° |
| 2026-04-28 09:48 | 56.10111 | -35.20148 | 39070 ft | 468 kts | 267° |
| 2026-04-28 09:49 | 56.10088 | -35.31783 | 39069 ft | 466 kts | 267° |
| 2026-04-28 09:49 | 56.10052 | -35.43391 | 39075 ft | 466 kts | 266° |
| 2026-04-28 09:50 | 56.10006 | -35.55015 | 39078 ft | 466 kts | 266° |
| 2026-04-28 09:50 | 56.09948 | -35.66629 | 39078 ft | 467 kts | 266° |
| 2026-04-28 09:51 | 56.09880 | -35.78257 | 39081 ft | 467 kts | 266° |
| 2026-04-28 09:51 | 56.09801 | -35.89897 | 39081 ft | 468 kts | 266° |
| 2026-04-28 09:52 | 56.09711 | -36.01554 | 39077 ft | 468 kts | 266° |
| 2026-04-28 09:52 | 56.09610 | -36.13215 | 39078 ft | 468 kts | 266° |
| 2026-04-28 09:53 | 56.09497 | -36.24886 | 39084 ft | 468 kts | 266° |
| 2026-04-28 09:53 | 56.09374 | -36.36537 | 39080 ft | 468 kts | 266° |
| 2026-04-28 09:54 | 56.09240 | -36.48201 | 39080 ft | 468 kts | 266° |
| 2026-04-28 09:54 | 56.09094 | -36.59864 | 39086 ft | 469 kts | 266° |
| 2026-04-28 09:55 | 56.08938 | -36.71541 | 39085 ft | 469 kts | 266° |
| 2026-04-28 09:55 | 56.08772 | -36.83145 | 39083 ft | 469 kts | 266° |
| 2026-04-28 09:56 | 56.08593 | -36.94825 | 39080 ft | 469 kts | 266° |
| 2026-04-28 09:56 | 56.08404 | -37.06502 | 39080 ft | 469 kts | 266° |
| 2026-04-28 09:57 | 56.08203 | -37.18192 | 39086 ft | 469 kts | 266° |
| 2026-04-28 09:57 | 56.07992 | -37.29861 | 39086 ft | 469 kts | 265° |
| 2026-04-28 09:58 | 56.07770 | -37.41521 | 39094 ft | 469 kts | 265° |
| 2026-04-28 09:58 | 56.07536 | -37.53209 | 39113 ft | 469 kts | 266° |
| 2026-04-28 09:59 | 56.07291 | -37.64884 | 39092 ft | 469 kts | 265° |
| 2026-04-28 09:59 | 56.07036 | -37.76546 | 39089 ft | 469 kts | 265° |
| 2026-04-28 10:00 | 56.06769 | -37.88216 | 39088 ft | 469 kts | 265° |
| 2026-04-28 10:00 | 56.06491 | -37.99891 | 39099 ft | 469 kts | 266° |
| 2026-04-28 10:01 | 56.06203 | -38.11537 | 39098 ft | 469 kts | 265° |
| 2026-04-28 10:01 | 56.05904 | -38.23200 | 39091 ft | 469 kts | 265° |
| 2026-04-28 10:02 | 56.05593 | -38.34851 | 39086 ft | 469 kts | 265° |
| 2026-04-28 10:02 | 56.05272 | -38.46511 | 39094 ft | 469 kts | 265° |
| 2026-04-28 10:03 | 56.04939 | -38.58171 | 39108 ft | 468 kts | 265° |
| 2026-04-28 10:03 | 56.04597 | -38.69779 | 39096 ft | 467 kts | 265° |
| 2026-04-28 10:04 | 56.04245 | -38.81359 | 39097 ft | 465 kts | 265° |
| 2026-04-28 10:04 | 56.03882 | -38.92925 | 39097 ft | 466 kts | 265° |
| 2026-04-28 10:05 | 56.03509 | -39.04476 | 39103 ft | 465 kts | 265° |
| 2026-04-28 10:05 | 56.03124 | -39.16049 | 39099 ft | 466 kts | 265° |
| 2026-04-28 10:06 | 56.02730 | -39.27587 | 39097 ft | 466 kts | 265° |
| 2026-04-28 10:06 | 56.02323 | -39.39150 | 39100 ft | 466 kts | 265° |
| 2026-04-28 10:07 | 56.01908 | -39.50691 | 39102 ft | 465 kts | 265° |
| 2026-04-28 10:07 | 56.01481 | -39.62217 | 39111 ft | 464 kts | 265° |
| 2026-04-28 10:08 | 56.01045 | -39.73710 | 39110 ft | 463 kts | 265° |
| 2026-04-28 10:08 | 56.00599 | -39.85196 | 39113 ft | 463 kts | 265° |
| 2026-04-28 10:09 | 56.00121 | -39.96677 | 39109 ft | 463 kts | 263° |
| 2026-04-28 10:09 | 55.98815 | -40.07929 | 39109 ft | 462 kts | 256° |
| 2026-04-28 10:10 | 55.97159 | -40.19025 | 39120 ft | 463 kts | 255° |
| 2026-04-28 10:10 | 55.95456 | -40.30021 | 39122 ft | 463 kts | 255° |
| 2026-04-28 10:11 | 55.93740 | -40.41072 | 39127 ft | 463 kts | 255° |
| 2026-04-28 10:11 | 55.92023 | -40.52131 | 39118 ft | 463 kts | 255° |
| 2026-04-28 10:12 | 55.90299 | -40.63187 | 39128 ft | 463 kts | 255° |
| 2026-04-28 10:12 | 55.88565 | -40.74230 | 39147 ft | 463 kts | 255° |
| 2026-04-28 10:13 | 55.86824 | -40.85243 | 39137 ft | 462 kts | 255° |
| 2026-04-28 10:13 | 55.85077 | -40.96223 | 39138 ft | 462 kts | 255° |
| 2026-04-28 10:14 | 55.83311 | -41.07253 | 39138 ft | 462 kts | 255° |
| 2026-04-28 10:14 | 55.81542 | -41.18228 | 39133 ft | 462 kts | 255° |
| 2026-04-28 10:15 | 55.79759 | -41.29220 | 39147 ft | 463 kts | 255° |
| 2026-04-28 10:15 | 55.77968 | -41.40185 | 39146 ft | 463 kts | 254° |
| 2026-04-28 10:16 | 55.76163 | -41.51172 | 39154 ft | 463 kts | 254° |
| 2026-04-28 10:16 | 55.74352 | -41.62127 | 39146 ft | 463 kts | 254° |
| 2026-04-28 10:17 | 55.72529 | -41.73079 | 39146 ft | 463 kts | 254° |
| 2026-04-28 10:17 | 55.70697 | -41.84019 | 39158 ft | 463 kts | 254° |
| 2026-04-28 10:18 | 55.68853 | -41.94965 | 39165 ft | 463 kts | 254° |
| 2026-04-28 10:18 | 55.66999 | -42.05901 | 39165 ft | 463 kts | 254° |
| 2026-04-28 10:19 | 55.65135 | -42.16825 | 39177 ft | 463 kts | 254° |
| 2026-04-28 10:19 | 55.63261 | -42.27742 | 39154 ft | 463 kts | 254° |
| 2026-04-28 10:20 | 55.61379 | -42.38643 | 39175 ft | 464 kts | 254° |
| 2026-04-28 10:20 | 55.59483 | -42.49558 | 39175 ft | 464 kts | 254° |
| 2026-04-28 10:21 | 55.57578 | -42.60453 | 39176 ft | 464 kts | 254° |
| 2026-04-28 10:21 | 55.55663 | -42.71341 | 39182 ft | 464 kts | 254° |
| 2026-04-28 10:22 | 55.53740 | -42.82212 | 39180 ft | 464 kts | 253° |
| 2026-04-28 10:22 | 55.51808 | -42.93067 | 39187 ft | 464 kts | 253° |
| 2026-04-28 10:23 | 55.49878 | -43.03848 | 39187 ft | 463 kts | 253° |
| 2026-04-28 10:23 | 55.47929 | -43.14670 | 39186 ft | 463 kts | 253° |
| 2026-04-28 10:24 | 55.45968 | -43.25496 | 39184 ft | 463 kts | 253° |
| 2026-04-28 10:24 | 55.44002 | -43.36283 | 39190 ft | 463 kts | 253° |
| 2026-04-28 10:25 | 55.43666 | -43.38119 | 39190 ft | 463 kts | 253° |